Time;durP1;ratioP1;P1;durP2;ratioP2;P2;SDS_P1;SDS_P2;PMS_P1;PMS_P2;Temp;Humidity;BMP_temperature;BMP_pressure;BME280_temperature;BME280_humidity;BME280_pressure;Samples;Min_cycle;Max_cycle;Signal;HPM_P1;HPM_P2
2021/12/22 00:02:25;;;;;;;51.10;31.85;;;;;;;;;;5014429;28;20283;-61
2021/12/22 00:04:51;;;;;;;45.85;31.35;;;;;;;;;;4997568;28;20077;-61
2021/12/22 00:07:17;;;;;;;52.15;30.88;;;;;;;;;;4997653;28;20053;-61
2021/12/22 00:09:43;;;;;;;44.83;30.13;;;;;;;;;;4997088;28;20041;-61
2021/12/22 00:12:10;;;;;;;42.35;29.98;;;;;;;;;;4999204;28;20050;-62
2021/12/22 00:14:36;;;;;;;49.58;32.03;;;;;;;;;;5000687;28;20033;-62
2021/12/22 00:17:02;;;;;;;49.63;31.52;;;;;;;;;;5000262;28;20038;-61
2021/12/22 00:19:29;;;;;;;46.13;31.63;;;;;;;;;;4995359;28;20057;-61
2021/12/22 00:21:55;;;;;;;52.10;31.55;;;;;;;;;;4999293;28;20436;-61
2021/12/22 00:24:21;;;;;;;49.97;32.63;;;;;;;;;;4999229;28;20038;-61
2021/12/22 00:26:47;;;;;;;52.30;32.30;;;;;;;;;;4997195;28;21256;-61
2021/12/22 00:29:14;;;;;;;50.17;31.90;;;;;;;;;;4999348;28;20049;-61
2021/12/22 00:31:42;;;;;;;52.50;33.13;;;;;;;;;;5001495;28;20484;-61
2021/12/22 00:34:16;;;;;;;57.30;33.72;;;;;;;;;;4997161;28;20038;-61
2021/12/22 00:36:42;;;;;;;47.75;30.88;;;;;;;;;;4995128;28;20484;-61
2021/12/22 00:39:08;;;;;;;54.13;33.20;;;;;;;;;;5000655;28;20108;-61
2021/12/22 00:41:34;;;;;;;53.03;32.80;;;;;;;;;;4999518;28;20491;-61
2021/12/22 00:44:00;;;;;;;58.60;35.95;;;;;;;;;;5000457;28;20503;-62
2021/12/22 00:46:27;;;;;;;55.08;34.90;;;;;;;;;;4982404;28;20081;-61
2021/12/22 00:48:53;;;;;;;55.08;35.58;;;;;;;;;;5000866;28;20033;-61
2021/12/22 00:51:19;;;;;;;61.70;35.80;;;;;;;;;;4995473;28;20524;-61
2021/12/22 00:53:45;;;;;;;56.65;37.10;;;;;;;;;;4998646;28;20037;-61
2021/12/22 00:56:11;;;;;;;59.22;37.88;;;;;;;;;;4996161;28;20665;-62
2021/12/22 00:58:37;;;;;;;58.72;38.15;;;;;;;;;;5000204;28;20061;-62
2021/12/22 01:01:04;;;;;;;59.05;36.65;;;;;;;;;;4994991;28;20495;-60
2021/12/22 01:03:30;;;;;;;63.10;38.47;;;;;;;;;;4997187;28;20092;-59
2021/12/22 01:05:56;;;;;;;65.70;40.88;;;;;;;;;;4999864;28;20034;-59
2021/12/22 01:08:22;;;;;;;60.40;37.53;;;;;;;;;;4999515;28;20042;-60
2021/12/22 01:10:48;;;;;;;58.20;37.42;;;;;;;;;;4999605;28;20046;-60
2021/12/22 01:13:14;;;;;;;67.60;40.63;;;;;;;;;;4999486;28;20040;-60
2021/12/22 01:15:41;;;;;;;64.57;42.58;;;;;;;;;;4995757;28;20065;-60
2021/12/22 01:18:14;;;;;;;68.95;41.55;;;;;;;;;;4999464;28;20396;-60
2021/12/22 01:23:20;;;;;;;59.97;38.85;;;;;;;;;;4999487;28;19930;-63
2021/12/22 01:25:48;;;;;;;62.95;41.13;;;;;;;;;;4997756;28;20034;-62
2021/12/22 01:28:15;;;;;;;62.10;39.75;;;;;;;;;;4980405;28;20042;-62
2021/12/22 01:30:45;;;;;;;67.28;40.88;;;;;;;;;;4997398;28;20101;-62
2021/12/22 01:33:12;;;;;;;67.95;40.20;;;;;;;;;;4995602;28;20038;-62
2021/12/22 01:35:38;;;;;;;62.92;40.33;;;;;;;;;;5000919;28;20046;-61
2021/12/22 01:38:04;;;;;;;64.05;41.92;;;;;;;;;;5001740;28;20048;-63
2021/12/22 01:40:30;;;;;;;79.20;44.88;;;;;;;;;;5001439;28;20669;-62
2021/12/22 01:42:57;;;;;;;70.75;43.00;;;;;;;;;;4999551;28;20388;-62
2021/12/22 01:46:20;;;;;;;65.88;43.38;;;;;;;;;;4998015;28;20141;-62
2021/12/22 01:51:39;;;;;;;68.20;44.35;;;;;;;;;;4998955;28;20058;-62
2021/12/22 01:54:14;;;;;;;67.45;43.47;;;;;;;;;;4998650;28;20061;-60
2021/12/22 01:56:42;;;;;;;67.75;42.03;;;;;;;;;;4997334;28;20483;-59
2021/12/22 01:59:09;;;;;;;69.15;45.22;;;;;;;;;;4999221;28;20049;-60
2021/12/22 02:01:35;;;;;;;69.97;42.70;;;;;;;;;;4998765;28;20046;-59
2021/12/22 02:04:03;;;;;;;71.03;44.08;;;;;;;;;;4998201;28;20458;-59
2021/12/22 02:06:29;;;;;;;66.57;43.47;;;;;;;;;;4999160;28;20104;-59
2021/12/22 02:08:55;;;;;;;64.28;40.95;;;;;;;;;;4998331;28;20070;-59
2021/12/22 02:11:22;;;;;;;63.70;40.90;;;;;;;;;;4998078;28;20044;-60
2021/12/22 02:13:56;;;;;;;69.85;43.17;;;;;;;;;;4998909;28;20095;-59
2021/12/22 02:16:27;;;;;;;66.93;44.78;;;;;;;;;;4993805;28;20068;-59
2021/12/22 02:18:54;;;;;;;76.15;47.15;;;;;;;;;;4996621;28;20388;-59
2021/12/22 02:21:22;;;;;;;75.72;46.28;;;;;;;;;;4991657;28;20046;-59
2021/12/22 02:23:48;;;;;;;75.28;46.38;;;;;;;;;;4998234;28;20038;-59
2021/12/22 02:28:46;;;;;;;74.93;46.53;;;;;;;;;;4993368;28;20046;-59
2021/12/22 02:31:15;;;;;;;80.35;49.40;;;;;;;;;;4997993;28;20046;-60
2021/12/22 02:33:44;;;;;;;74.00;47.88;;;;;;;;;;5000870;28;20065;-60
2021/12/22 02:36:38;;;;;;;83.97;50.13;;;;;;;;;;4998319;28;20046;-61
2021/12/22 02:38:58;;;;;;;76.55;47.08;;;;;;;;;;5019540;28;20154;-61
2021/12/22 02:41:27;;;;;;;76.88;49.05;;;;;;;;;;4995207;28;20129;-61
2021/12/22 02:43:55;;;;;;;78.65;46.80;;;;;;;;;;4992890;28;20045;-61
2021/12/22 02:46:26;;;;;;;78.47;48.10;;;;;;;;;;4999987;28;20111;-61
2021/12/22 02:48:52;;;;;;;82.55;50.22;;;;;;;;;;4999015;28;20046;-61
2021/12/22 02:51:19;;;;;;;80.88;48.75;;;;;;;;;;5000114;28;20400;-63
2021/12/22 02:54:14;;;;;;;87.50;46.13;;;;;;;;;;4993856;28;20411;-62
2021/12/22 02:57:19;;;;;;;82.90;47.70;;;;;;;;;;4994806;28;20065;-61
2021/12/22 03:00:04;;;;;;;84.28;47.70;;;;;;;;;;4998533;28;20046;-63
2021/12/22 03:04:59;;;;;;;93.05;49.75;;;;;;;;;;4996073;28;20507;-62
2021/12/22 03:07:29;;;;;;;90.28;49.53;;;;;;;;;;4982321;28;20042;-61
2021/12/22 03:09:59;;;;;;;81.60;44.58;;;;;;;;;;5023729;28;20100;-61
2021/12/22 03:12:26;;;;;;;98.03;51.38;;;;;;;;;;4999520;28;20492;-63
2021/12/22 03:14:52;;;;;;;91.68;48.22;;;;;;;;;;4999317;28;20159;-62
2021/12/22 03:17:18;;;;;;;86.22;48.28;;;;;;;;;;5001264;28;20041;-63
2021/12/22 03:19:44;;;;;;;82.97;47.30;;;;;;;;;;4999065;28;20048;-63
2021/12/22 03:22:11;;;;;;;82.35;47.95;;;;;;;;;;5003684;28;20458;-61
2021/12/22 03:24:39;;;;;;;88.28;47.15;;;;;;;;;;5001547;28;20052;-62
2021/12/22 03:27:07;;;;;;;80.18;47.05;;;;;;;;;;4995152;28;20038;-62
2021/12/22 03:29:34;;;;;;;82.00;45.65;;;;;;;;;;4995129;28;20050;-61
2021/12/22 03:32:00;;;;;;;79.00;43.10;;;;;;;;;;5000569;28;20046;-61
2021/12/22 03:34:26;;;;;;;81.57;44.40;;;;;;;;;;4997201;28;20045;-60
2021/12/22 03:36:52;;;;;;;84.85;42.97;;;;;;;;;;4985537;28;20047;-61
2021/12/22 03:39:19;;;;;;;73.55;40.88;;;;;;;;;;4999825;28;20077;-61
2021/12/22 03:41:45;;;;;;;73.60;42.67;;;;;;;;;;4999748;28;20053;-61
2021/12/22 03:44:12;;;;;;;77.15;41.33;;;;;;;;;;5002048;28;20061;-61
2021/12/22 03:46:38;;;;;;;75.63;42.38;;;;;;;;;;5001756;28;20046;-61
2021/12/22 03:49:05;;;;;;;74.38;40.15;;;;;;;;;;5000516;28;20783;-63
2021/12/22 03:51:31;;;;;;;71.70;38.70;;;;;;;;;;4999652;28;20042;-61
2021/12/22 03:53:57;;;;;;;68.28;39.45;;;;;;;;;;5000352;28;20033;-61
2021/12/22 03:56:23;;;;;;;65.90;37.13;;;;;;;;;;5001696;28;20029;-62
2021/12/22 03:58:50;;;;;;;61.95;37.88;;;;;;;;;;4999299;28;20034;-62
2021/12/22 04:01:16;;;;;;;66.18;36.65;;;;;;;;;;4998571;28;20049;-63
2021/12/22 04:03:45;;;;;;;63.15;37.15;;;;;;;;;;4999589;28;20118;-64
2021/12/22 04:06:11;;;;;;;65.65;36.95;;;;;;;;;;4984263;28;20385;-62
2021/12/22 04:08:37;;;;;;;73.57;35.67;;;;;;;;;;4998615;28;20037;-62
2021/12/22 04:11:04;;;;;;;61.17;34.08;;;;;;;;;;5000597;28;20049;-63
2021/12/22 04:13:30;;;;;;;58.15;32.67;;;;;;;;;;5003004;28;20041;-62
2021/12/22 04:15:56;;;;;;;56.13;32.08;;;;;;;;;;4999182;28;20038;-63
2021/12/22 04:18:22;;;;;;;57.20;33.63;;;;;;;;;;4997578;28;20109;-62
2021/12/22 04:20:48;;;;;;;58.65;31.55;;;;;;;;;;5001146;28;20401;-63
2021/12/22 04:23:15;;;;;;;55.75;31.15;;;;;;;;;;4998649;28;20034;-63
2021/12/22 04:25:42;;;;;;;64.32;33.10;;;;;;;;;;5000358;28;20544;-62
2021/12/22 04:28:09;;;;;;;56.78;31.35;;;;;;;;;;5000574;28;20042;-62
2021/12/22 04:30:37;;;;;;;58.42;28.95;;;;;;;;;;4998941;28;20389;-62
2021/12/22 04:33:03;;;;;;;47.03;30.05;;;;;;;;;;5001263;28;20065;-63
2021/12/22 04:35:30;;;;;;;45.97;27.05;;;;;;;;;;4997516;28;20031;-62
2021/12/22 04:37:56;;;;;;;46.95;29.33;;;;;;;;;;4999037;28;20089;-62
2021/12/22 04:40:22;;;;;;;46.33;29.17;;;;;;;;;;4982772;28;20137;-62
2021/12/22 04:42:48;;;;;;;46.53;29.13;;;;;;;;;;4999206;28;20045;-63
2021/12/22 04:45:15;;;;;;;47.88;27.40;;;;;;;;;;4995997;28;20100;-62
2021/12/22 04:47:41;;;;;;;44.53;27.45;;;;;;;;;;4997994;28;20140;-62
2021/12/22 04:50:13;;;;;;;44.38;26.35;;;;;;;;;;4996719;28;20559;-62
2021/12/22 04:53:01;;;;;;;47.15;26.23;;;;;;;;;;4998547;28;20046;-62
2021/12/22 04:55:27;;;;;;;43.20;25.80;;;;;;;;;;4970004;28;20568;-62
2021/12/22 04:57:54;;;;;;;42.55;25.92;;;;;;;;;;4998511;28;20052;-62
2021/12/22 05:00:21;;;;;;;41.83;25.48;;;;;;;;;;4996022;28;20741;-62
2021/12/22 05:02:47;;;;;;;41.97;25.27;;;;;;;;;;4982465;28;20546;-62
2021/12/22 05:05:13;;;;;;;42.67;25.48;;;;;;;;;;4996648;28;20133;-62
2021/12/22 05:07:40;;;;;;;46.35;24.85;;;;;;;;;;4997192;28;20405;-63
2021/12/22 05:10:07;;;;;;;39.45;25.00;;;;;;;;;;4998151;28;20053;-63
2021/12/22 05:12:33;;;;;;;43.25;25.75;;;;;;;;;;4999621;28;20053;-63
2021/12/22 05:14:59;;;;;;;41.47;25.08;;;;;;;;;;4998853;28;20038;-62
2021/12/22 05:17:50;;;;;;;42.33;25.27;;;;;;;;;;4993718;28;20084;-62
2021/12/22 05:20:12;;;;;;;45.10;26.55;;;;;;;;;;5018220;28;20062;-62
2021/12/22 05:22:38;;;;;;;43.65;25.17;;;;;;;;;;4998018;28;20088;-60
2021/12/22 05:25:05;;;;;;;46.08;25.85;;;;;;;;;;4996924;28;20404;-61
2021/12/22 05:27:31;;;;;;;39.33;23.95;;;;;;;;;;4997632;28;20116;-62
2021/12/22 05:29:58;;;;;;;42.40;25.25;;;;;;;;;;5001563;28;20044;-62
2021/12/22 05:32:30;;;;;;;42.20;24.88;;;;;;;;;;5000732;28;20096;-62
2021/12/22 05:34:57;;;;;;;43.38;26.33;;;;;;;;;;4995106;28;20104;-62
2021/12/22 05:37:23;;;;;;;49.42;25.85;;;;;;;;;;4994248;28;20514;-62
2021/12/22 05:39:49;;;;;;;44.45;25.42;;;;;;;;;;4995976;28;20411;-61
2021/12/22 05:42:15;;;;;;;44.25;26.95;;;;;;;;;;4997336;28;20045;-62
2021/12/22 05:44:42;;;;;;;40.80;24.73;;;;;;;;;;5000114;28;20046;-62
2021/12/22 05:47:08;;;;;;;41.72;26.15;;;;;;;;;;4996366;28;20030;-62
2021/12/22 05:49:34;;;;;;;41.35;25.38;;;;;;;;;;4997294;28;20412;-62
2021/12/22 05:52:01;;;;;;;41.90;26.45;;;;;;;;;;4998388;28;20527;-61
2021/12/22 05:54:27;;;;;;;42.08;25.10;;;;;;;;;;5000028;28;20500;-62
2021/12/22 05:56:53;;;;;;;39.58;25.23;;;;;;;;;;4998067;28;20431;-62
2021/12/22 05:59:19;;;;;;;38.88;23.40;;;;;;;;;;4999809;28;20096;-62
2021/12/22 06:01:45;;;;;;;46.35;25.75;;;;;;;;;;4995307;28;20523;-62
2021/12/22 06:04:11;;;;;;;41.97;25.75;;;;;;;;;;4994973;28;20086;-62
2021/12/22 06:06:37;;;;;;;44.15;25.38;;;;;;;;;;4997405;28;20549;-62
2021/12/22 06:09:04;;;;;;;40.90;26.13;;;;;;;;;;4994878;28;20061;-62
2021/12/22 06:11:30;;;;;;;41.80;25.60;;;;;;;;;;4995335;28;20115;-62
2021/12/22 06:13:57;;;;;;;42.25;25.50;;;;;;;;;;4978619;28;20064;-62
2021/12/22 06:16:23;;;;;;;41.95;25.55;;;;;;;;;;4999034;28;20054;-63
2021/12/22 06:18:55;;;;;;;46.33;27.60;;;;;;;;;;4998527;28;20046;-63
2021/12/22 06:21:22;;;;;;;41.47;26.27;;;;;;;;;;4998941;28;20054;-62
2021/12/22 06:23:48;;;;;;;48.10;26.83;;;;;;;;;;4997368;28;20034;-62
2021/12/22 06:26:14;;;;;;;41.45;25.92;;;;;;;;;;4995078;28;20038;-62
2021/12/22 06:28:40;;;;;;;42.25;26.15;;;;;;;;;;4998641;28;20037;-62
2021/12/22 06:31:06;;;;;;;44.28;27.23;;;;;;;;;;4999818;28;20046;-62
2021/12/22 06:33:33;;;;;;;42.63;26.35;;;;;;;;;;5001025;28;20382;-62
2021/12/22 06:35:59;;;;;;;45.35;26.85;;;;;;;;;;5004009;28;20050;-62
2021/12/22 06:38:25;;;;;;;46.15;27.00;;;;;;;;;;5005142;28;20046;-62
2021/12/22 06:40:51;;;;;;;44.20;26.70;;;;;;;;;;4997312;28;20056;-62
2021/12/22 06:43:18;;;;;;;40.92;24.23;;;;;;;;;;4998661;28;20038;-62
2021/12/22 06:45:44;;;;;;;44.80;26.40;;;;;;;;;;4999663;28;20045;-61
2021/12/22 06:48:10;;;;;;;43.83;25.00;;;;;;;;;;4999880;28;21613;-62
2021/12/22 06:50:36;;;;;;;39.20;23.95;;;;;;;;;;5000308;28;20125;-62
2021/12/22 06:53:02;;;;;;;49.45;28.80;;;;;;;;;;4998461;28;20077;-62
2021/12/22 06:55:28;;;;;;;41.88;22.55;;;;;;;;;;5000911;28;20451;-61
2021/12/22 06:57:55;;;;;;;38.35;22.83;;;;;;;;;;4997794;28;20077;-61
2021/12/22 07:00:22;;;;;;;39.97;22.73;;;;;;;;;;4998034;28;20566;-63
2021/12/22 07:02:48;;;;;;;47.55;25.55;;;;;;;;;;4999491;28;20040;-62
2021/12/22 07:05:14;;;;;;;44.08;27.55;;;;;;;;;;4996716;28;20046;-62
2021/12/22 07:07:41;;;;;;;47.15;24.90;;;;;;;;;;5004700;28;20041;-62
2021/12/22 07:10:08;;;;;;;44.75;27.50;;;;;;;;;;5000689;28;20053;-62
2021/12/22 07:12:34;;;;;;;49.55;28.05;;;;;;;;;;4999787;28;20503;-63
2021/12/22 07:15:02;;;;;;;48.92;28.02;;;;;;;;;;5000939;28;20052;-62
2021/12/22 07:17:28;;;;;;;48.22;27.73;;;;;;;;;;4996258;28;20109;-62
2021/12/22 07:19:54;;;;;;;50.63;28.13;;;;;;;;;;5001742;28;20049;-62
2021/12/22 07:22:20;;;;;;;48.75;26.88;;;;;;;;;;4981326;28;20042;-63
2021/12/22 07:24:46;;;;;;;51.90;28.30;;;;;;;;;;4983809;28;20041;-63
2021/12/22 07:27:12;;;;;;;51.90;27.67;;;;;;;;;;4998305;28;20033;-62
2021/12/22 07:29:38;;;;;;;52.15;28.85;;;;;;;;;;4999720;28;20435;-62
2021/12/22 07:32:05;;;;;;;48.67;28.88;;;;;;;;;;4999263;28;20052;-62
2021/12/22 07:34:38;;;;;;;50.33;26.08;;;;;;;;;;4999165;28;20038;-63
2021/12/22 07:37:09;;;;;;;48.67;29.33;;;;;;;;;;5000731;28;20125;-62
2021/12/22 07:39:35;;;;;;;45.88;27.08;;;;;;;;;;5001050;28;20049;-63
2021/12/22 07:42:01;;;;;;;53.38;27.58;;;;;;;;;;5015594;28;20066;-60
2021/12/22 07:44:27;;;;;;;51.17;27.08;;;;;;;;;;4998124;28;20109;-60
2021/12/22 07:46:53;;;;;;;53.00;28.85;;;;;;;;;;5000940;28;20048;-62
2021/12/22 07:49:20;;;;;;;45.47;25.67;;;;;;;;;;4997588;28;20479;-62
2021/12/22 07:51:46;;;;;;;51.13;27.08;;;;;;;;;;4999792;28;20041;-61
2021/12/22 07:54:12;;;;;;;46.60;26.30;;;;;;;;;;5001338;28;20084;-62
2021/12/22 07:56:38;;;;;;;47.47;25.33;;;;;;;;;;5000049;28;20054;-63
2021/12/22 07:59:04;;;;;;;47.65;25.75;;;;;;;;;;5001029;28;20101;-63
2021/12/22 08:01:32;;;;;;;47.15;25.67;;;;;;;;;;4999678;28;20098;-63
2021/12/22 08:03:59;;;;;;;53.05;29.98;;;;;;;;;;5001431;28;20042;-63
2021/12/22 08:06:25;;;;;;;50.15;24.13;;;;;;;;;;4990478;28;20034;-60
2021/12/22 08:08:51;;;;;;;48.13;27.35;;;;;;;;;;4994619;28;20069;-60
2021/12/22 08:11:17;;;;;;;53.15;27.70;;;;;;;;;;5001448;28;20042;-61
2021/12/22 08:13:43;;;;;;;48.88;25.25;;;;;;;;;;4997813;28;20045;-61
2021/12/22 08:16:09;;;;;;;46.50;26.02;;;;;;;;;;4997425;28;20033;-60
2021/12/22 08:18:35;;;;;;;44.83;24.65;;;;;;;;;;4998398;28;20183;-60
2021/12/22 08:21:02;;;;;;;49.42;26.27;;;;;;;;;;4998952;28;20046;-63
2021/12/22 08:23:28;;;;;;;48.22;27.52;;;;;;;;;;5000071;28;20500;-61
2021/12/22 08:25:54;;;;;;;44.65;24.95;;;;;;;;;;4984762;28;20045;-60
2021/12/22 08:28:21;;;;;;;46.50;26.73;;;;;;;;;;5000963;28;20042;-60
2021/12/22 08:30:47;;;;;;;43.10;24.70;;;;;;;;;;4999595;28;20564;-60
2021/12/22 08:33:20;;;;;;;44.25;26.23;;;;;;;;;;4999492;28;20061;-60
2021/12/22 08:41:16;;;;;;;42.22;24.42;;;;;;;;;;4984443;28;20130;-60
2021/12/22 08:43:42;;;;;;;41.20;24.30;;;;;;;;;;4997959;28;20129;-60
2021/12/22 08:46:08;;;;;;;46.53;25.15;;;;;;;;;;4991884;28;20050;-60
2021/12/22 08:48:34;;;;;;;41.95;25.25;;;;;;;;;;4992210;28;20088;-61
2021/12/22 08:51:00;;;;;;;42.38;22.55;;;;;;;;;;4991789;28;20597;-61
2021/12/22 08:53:26;;;;;;;45.58;24.50;;;;;;;;;;4989992;28;20052;-60
2021/12/22 08:55:52;;;;;;;39.83;25.05;;;;;;;;;;4991654;28;20046;-61
2021/12/22 08:58:18;;;;;;;40.22;22.90;;;;;;;;;;4991876;28;20070;-61
2021/12/22 09:00:44;;;;;;;43.78;25.08;;;;;;;;;;4990282;28;20050;-61
2021/12/22 09:03:11;;;;;;;43.53;26.05;;;;;;;;;;4990249;28;20137;-60
2021/12/22 09:05:37;;;;;;;38.80;25.65;;;;;;;;;;4991152;28;20112;-60
2021/12/22 09:08:03;;;;;;;42.47;25.23;;;;;;;;;;4974226;28;20102;-61
2021/12/22 09:10:30;;;;;;;38.90;24.80;;;;;;;;;;4991640;28;20058;-61
2021/12/22 09:12:56;;;;;;;41.38;24.90;;;;;;;;;;4991569;28;20496;-61
2021/12/22 09:15:22;;;;;;;41.35;25.75;;;;;;;;;;4974121;28;20112;-60
2021/12/22 09:17:48;;;;;;;37.33;24.48;;;;;;;;;;4991290;28;20400;-62
2021/12/22 09:20:15;;;;;;;43.30;25.30;;;;;;;;;;4991222;28;20061;-62
2021/12/22 09:22:41;;;;;;;38.47;25.52;;;;;;;;;;4994996;28;20121;-62
2021/12/22 09:25:09;;;;;;;37.70;25.65;;;;;;;;;;4995778;28;20464;-62
2021/12/22 09:27:36;;;;;;;39.85;24.02;;;;;;;;;;4992796;28;20492;-62
2021/12/22 09:30:04;;;;;;;39.35;23.90;;;;;;;;;;4988058;28;20903;-62
2021/12/22 09:32:31;;;;;;;39.13;21.98;;;;;;;;;;4989304;28;20398;-61
2021/12/22 09:34:57;;;;;;;35.45;22.40;;;;;;;;;;4990752;28;20046;-62
2021/12/22 09:37:23;;;;;;;35.40;21.42;;;;;;;;;;4990398;28;20126;-62
2021/12/22 09:39:49;;;;;;;37.65;22.60;;;;;;;;;;4989193;28;20512;-62
2021/12/22 09:42:16;;;;;;;36.22;22.10;;;;;;;;;;4990164;28;20097;-62
2021/12/22 09:44:44;;;;;;;38.97;22.40;;;;;;;;;;4990024;28;20053;-62
2021/12/22 09:47:11;;;;;;;37.53;23.05;;;;;;;;;;4972789;28;20830;-62
2021/12/22 09:52:23;;;;;;;36.17;23.80;;;;;;;;;;4990226;28;20046;-62
2021/12/22 09:54:52;;;;;;;36.80;21.48;;;;;;;;;;4990083;28;20081;-61
2021/12/22 09:57:19;;;;;;;34.03;21.33;;;;;;;;;;4993039;28;20496;-61
2021/12/22 09:59:52;;;;;;;33.58;20.98;;;;;;;;;;4994871;28;20085;-61
2021/12/22 10:02:19;;;;;;;36.17;22.08;;;;;;;;;;4996819;28;20844;-62
2021/12/22 10:04:46;;;;;;;36.83;23.13;;;;;;;;;;4998800;28;20403;-61
2021/12/22 10:07:19;;;;;;;34.97;21.83;;;;;;;;;;5002192;28;20103;-62
2021/12/22 10:09:45;;;;;;;36.95;21.75;;;;;;;;;;4999320;28;20046;-62
2021/12/22 10:12:17;;;;;;;39.95;21.38;;;;;;;;;;4999218;28;20057;-62
2021/12/22 10:14:51;;;;;;;38.13;21.17;;;;;;;;;;4998855;28;20361;-62
2021/12/22 10:17:29;;;;;;;32.75;19.52;;;;;;;;;;5003627;28;20050;-63
2021/12/22 10:19:59;;;;;;;31.92;19.02;;;;;;;;;;5000610;28;20050;-63
2021/12/22 10:22:32;;;;;;;33.75;18.73;;;;;;;;;;5005551;28;20042;-63
2021/12/22 10:25:18;;;;;;;28.17;18.27;;;;;;;;;;5005917;28;20081;-62
2021/12/22 10:27:46;;;;;;;28.63;17.20;;;;;;;;;;5017207;28;20042;-62
2021/12/22 10:30:23;;;;;;;30.70;19.05;;;;;;;;;;5009894;28;20041;-62
2021/12/22 10:32:49;;;;;;;27.08;16.95;;;;;;;;;;4996318;28;20045;-62
2021/12/22 10:35:16;;;;;;;30.67;18.35;;;;;;;;;;5011211;28;20381;-63
2021/12/22 10:37:44;;;;;;;31.10;18.52;;;;;;;;;;5006817;28;20109;-63
2021/12/22 10:40:27;;;;;;;25.15;15.95;;;;;;;;;;5009961;28;20049;-62
2021/12/22 10:42:54;;;;;;;27.33;17.40;;;;;;;;;;5012024;28;20141;-62
2021/12/22 10:45:21;;;;;;;30.08;16.50;;;;;;;;;;5009971;28;21697;-62
2021/12/22 10:50:33;;;;;;;24.92;14.65;;;;;;;;;;5005326;28;22038;-62
2021/12/22 10:53:00;;;;;;;27.58;16.98;;;;;;;;;;5012155;28;20038;-62
2021/12/22 10:55:35;;;;;;;27.00;16.77;;;;;;;;;;5025531;28;20038;-62
2021/12/22 10:58:01;;;;;;;26.55;17.67;;;;;;;;;;5007550;28;20125;-62
2021/12/22 11:00:27;;;;;;;30.27;17.95;;;;;;;;;;5012252;28;20290;-62
2021/12/22 11:03:04;;;;;;;29.33;17.60;;;;;;;;;;5000215;28;20061;-62
2021/12/22 11:05:31;;;;;;;26.85;15.38;;;;;;;;;;5009430;28;20049;-62
2021/12/22 11:08:01;;;;;;;24.55;16.35;;;;;;;;;;4984369;28;20038;-64
2021/12/22 11:10:27;;;;;;;30.08;15.90;;;;;;;;;;5003426;28;20045;-62
2021/12/22 11:13:04;;;;;;;27.80;15.27;;;;;;;;;;5011533;28;20057;-61
2021/12/22 11:15:31;;;;;;;27.40;17.25;;;;;;;;;;4996807;28;20042;-61
2021/12/22 11:17:57;;;;;;;23.45;14.07;;;;;;;;;;4991776;28;20077;-61
2021/12/22 11:20:24;;;;;;;24.73;15.90;;;;;;;;;;4993441;28;20042;-61
2021/12/22 11:22:58;;;;;;;22.40;13.90;;;;;;;;;;4976215;28;20038;-61
2021/12/22 11:25:25;;;;;;;24.38;15.48;;;;;;;;;;4993613;28;20125;-61
2021/12/22 11:27:52;;;;;;;25.67;15.63;;;;;;;;;;4992877;28;20042;-61
2021/12/22 11:30:18;;;;;;;23.00;14.75;;;;;;;;;;4992730;28;20041;-60
2021/12/22 11:32:44;;;;;;;24.33;15.38;;;;;;;;;;4996974;28;20044;-61
2021/12/22 11:35:12;;;;;;;23.73;14.27;;;;;;;;;;4997221;28;20046;-60
2021/12/22 11:37:38;;;;;;;21.90;14.55;;;;;;;;;;4997779;28;20089;-60
2021/12/22 11:40:05;;;;;;;23.60;16.27;;;;;;;;;;4999221;28;20045;-62
2021/12/22 11:42:32;;;;;;;21.92;13.95;;;;;;;;;;4999584;28;20042;-62
2021/12/22 11:45:00;;;;;;;23.20;14.85;;;;;;;;;;4998585;28;20074;-62
2021/12/22 11:47:27;;;;;;;21.15;14.32;;;;;;;;;;4984278;28;20037;-62
2021/12/22 11:49:53;;;;;;;20.77;12.60;;;;;;;;;;5003661;28;20076;-62
2021/12/22 11:52:31;;;;;;;19.05;12.65;;;;;;;;;;4995263;28;20049;-62
2021/12/22 11:55:10;;;;;;;17.42;12.32;;;;;;;;;;4991973;28;20042;-62
2021/12/22 11:57:36;;;;;;;19.15;13.57;;;;;;;;;;5001163;28;20077;-62
2021/12/22 12:00:21;;;;;;;19.92;11.88;;;;;;;;;;4980918;28;20398;-63
2021/12/22 12:02:47;;;;;;;17.15;12.82;;;;;;;;;;5012255;28;20116;-63
2021/12/22 12:05:15;;;;;;;18.85;12.15;;;;;;;;;;5000223;28;20053;-62
2021/12/22 12:07:42;;;;;;;18.08;12.35;;;;;;;;;;4999408;28;21386;-62
2021/12/22 12:10:27;;;;;;;19.75;12.40;;;;;;;;;;4997449;28;20049;-63
2021/12/22 12:12:56;;;;;;;19.20;12.68;;;;;;;;;;5000549;28;20488;-62
2021/12/22 12:15:51;;;;;;;16.92;11.90;;;;;;;;;;4999571;28;20050;-62
2021/12/22 12:21:48;;;;;;;18.23;13.00;;;;;;;;;;4996455;28;20100;-62
2021/12/22 12:24:34;;;;;;;19.85;12.88;;;;;;;;;;4981295;28;20042;-62
2021/12/22 12:27:01;;;;;;;20.02;11.52;;;;;;;;;;5000128;28;20463;-62
2021/12/22 12:29:46;;;;;;;18.33;12.27;;;;;;;;;;5007889;28;20037;-62
2021/12/22 12:32:30;;;;;;;19.15;13.07;;;;;;;;;;5009158;28;20102;-61
2021/12/22 12:35:15;;;;;;;18.48;11.38;;;;;;;;;;5010811;28;20496;-62
2021/12/22 12:37:56;;;;;;;18.55;12.75;;;;;;;;;;5009748;28;20496;-62
2021/12/22 12:40:22;;;;;;;17.55;11.90;;;;;;;;;;5010851;28;20046;-62
2021/12/22 12:42:58;;;;;;;20.90;13.13;;;;;;;;;;5010526;28;20042;-62
2021/12/22 12:45:43;;;;;;;18.08;11.90;;;;;;;;;;5010632;28;20038;-62
2021/12/22 12:48:30;;;;;;;19.63;13.38;;;;;;;;;;5010330;28;20511;-62
2021/12/22 12:51:15;;;;;;;21.48;14.10;;;;;;;;;;4993099;28;20056;-62
2021/12/22 12:53:42;;;;;;;23.25;14.73;;;;;;;;;;5009469;28;20060;-62
2021/12/22 12:56:09;;;;;;;22.25;15.18;;;;;;;;;;5009466;28;20117;-62
2021/12/22 12:58:35;;;;;;;23.40;14.45;;;;;;;;;;5010464;28;20046;-62
2021/12/22 13:01:01;;;;;;;25.90;16.88;;;;;;;;;;5010419;28;20045;-61
2021/12/22 13:03:27;;;;;;;23.65;16.45;;;;;;;;;;4992407;28;20034;-62
2021/12/22 13:05:53;;;;;;;20.90;15.05;;;;;;;;;;5010223;28;20061;-61
2021/12/22 13:08:20;;;;;;;25.58;16.65;;;;;;;;;;5008934;28;20096;-61
2021/12/22 13:10:51;;;;;;;23.23;15.32;;;;;;;;;;5010620;28;20041;-62
2021/12/22 13:13:30;;;;;;;23.23;15.32;;;;;;;;;;5009166;28;20041;-60
2021/12/22 13:15:56;;;;;;;22.98;15.10;;;;;;;;;;5010198;28;20121;-61
2021/12/22 13:18:26;;;;;;;20.70;14.60;;;;;;;;;;5010041;28;20125;-61
2021/12/22 13:20:55;;;;;;;22.52;15.48;;;;;;;;;;5009023;28;20400;-62
2021/12/22 13:23:22;;;;;;;22.02;14.45;;;;;;;;;;5008537;28;20060;-62
2021/12/22 13:25:50;;;;;;;25.33;15.90;;;;;;;;;;5008843;28;20058;-62
2021/12/22 13:28:21;;;;;;;24.83;15.57;;;;;;;;;;5008609;28;20072;-62
2021/12/22 13:30:52;;;;;;;23.42;15.07;;;;;;;;;;5010006;28;20490;-62
2021/12/22 13:33:37;;;;;;;23.20;14.75;;;;;;;;;;5008437;28;20129;-62
2021/12/22 13:36:08;;;;;;;22.95;14.25;;;;;;;;;;5009644;28;20046;-61
2021/12/22 13:38:35;;;;;;;26.10;15.95;;;;;;;;;;4992478;28;20048;-61
2021/12/22 13:41:12;;;;;;;22.55;15.73;;;;;;;;;;5010070;28;20050;-61
2021/12/22 13:43:39;;;;;;;20.80;13.70;;;;;;;;;;5009465;28;20427;-61
2021/12/22 13:46:10;;;;;;;21.63;15.45;;;;;;;;;;5010180;28;20077;-61
2021/12/22 13:48:37;;;;;;;21.75;13.23;;;;;;;;;;5010758;28;20053;-61
2021/12/22 13:51:05;;;;;;;25.27;15.65;;;;;;;;;;5010360;28;20460;-61
2021/12/22 13:53:32;;;;;;;20.30;13.55;;;;;;;;;;5010537;28;20057;-61
2021/12/22 13:55:58;;;;;;;22.00;14.95;;;;;;;;;;5009614;28;20038;-61
2021/12/22 13:58:41;;;;;;;24.25;16.58;;;;;;;;;;5004848;28;20112;-63
2021/12/22 14:01:19;;;;;;;25.48;16.67;;;;;;;;;;4986160;28;20780;-64
2021/12/22 14:03:46;;;;;;;22.85;15.95;;;;;;;;;;4996507;28;20135;-63
2021/12/22 14:06:14;;;;;;;24.83;16.80;;;;;;;;;;4997610;28;20038;-62
2021/12/22 14:08:41;;;;;;;24.33;16.45;;;;;;;;;;5013759;28;20116;-63
2021/12/22 14:11:39;;;;;;;24.70;17.30;;;;;;;;;;4998195;28;20041;-62
2021/12/22 14:14:25;;;;;;;26.30;15.80;;;;;;;;;;4971374;28;20050;-62
2021/12/22 14:17:04;;;;;;;24.60;16.05;;;;;;;;;;4988749;28;20057;-61
2021/12/22 14:19:31;;;;;;;26.25;16.95;;;;;;;;;;4994918;28;20128;-61
2021/12/22 14:22:05;;;;;;;29.65;16.35;;;;;;;;;;4993683;28;20038;-61
2021/12/22 14:24:39;;;;;;;26.08;16.60;;;;;;;;;;5007075;28;20124;-60
2021/12/22 14:27:09;;;;;;;27.05;17.23;;;;;;;;;;4997229;28;20429;-61
2021/12/22 14:29:45;;;;;;;28.65;17.98;;;;;;;;;;4996145;28;20122;-61
2021/12/22 14:32:11;;;;;;;26.48;17.30;;;;;;;;;;4998578;28;20049;-61
2021/12/22 14:34:56;;;;;;;26.73;16.42;;;;;;;;;;4997019;28;20385;-60
2021/12/22 14:37:29;;;;;;;24.08;15.05;;;;;;;;;;4989366;28;20046;-60
2021/12/22 14:39:56;;;;;;;25.92;16.55;;;;;;;;;;4999780;28;20125;-62
2021/12/22 14:42:26;;;;;;;26.15;17.42;;;;;;;;;;5003993;28;20045;-62
2021/12/22 14:45:12;;;;;;;25.15;15.80;;;;;;;;;;4989625;28;20038;-62
2021/12/22 14:47:38;;;;;;;24.17;16.30;;;;;;;;;;4992048;28;20042;-62
2021/12/22 14:50:11;;;;;;;30.38;18.33;;;;;;;;;;4989097;28;20451;-62
2021/12/22 14:52:37;;;;;;;22.95;16.60;;;;;;;;;;4991448;28;20045;-62